Time;durP1;ratioP1;P1;durP2;ratioP2;P2;SDS_P1;SDS_P2;PMS_P1;PMS_P2;Temp;Humidity;BMP_temperature;BMP_pressure;BME280_temperature;BME280_humidity;BME280_pressure;Samples;Min_cycle;Max_cycle;Signal;HPM_P1;HPM_P2
2022/03/02 00:02:23;;;;;;;32.60;19.50;;;;;;;5.95;60.74;102438.44;5028354;28;20057;-66
2022/03/02 00:04:48;;;;;;;28.63;19.60;;;;;;;5.98;61.72;102432.81;5032194;28;20091;-65
2022/03/02 00:07:14;;;;;;;30.48;19.30;;;;;;;5.99;61.87;102434.47;5032481;28;20389;-66
2022/03/02 00:09:40;;;;;;;29.70;19.27;;;;;;;5.94;61.15;102437.59;5032257;28;20061;-66
2022/03/02 00:12:06;;;;;;;28.30;18.27;;;;;;;5.96;61.46;102437.44;5032195;28;20100;-66
2022/03/02 00:14:31;;;;;;;29.35;20.10;;;;;;;5.92;60.82;102436.06;5020426;28;20033;-66
2022/03/02 00:16:56;;;;;;;30.45;18.88;;;;;;;5.92;60.97;102436.06;5012642;28;20029;-66
2022/03/02 00:19:22;;;;;;;32.42;20.70;;;;;;;5.85;61.00;102444.75;5012578;28;20433;-66
2022/03/02 00:21:47;;;;;;;30.65;19.85;;;;;;;5.75;61.64;102441.31;5012609;28;20482;-66
2022/03/02 00:24:12;;;;;;;32.50;21.15;;;;;;;5.63;61.94;102437.13;5012241;28;20026;-67
2022/03/02 00:26:38;;;;;;;29.88;20.42;;;;;;;5.57;61.42;102449.38;5012372;28;20030;-66
2022/03/02 00:29:05;;;;;;;30.17;20.75;;;;;;;5.48;61.89;102444.88;5021848;28;20029;-67
2022/03/02 00:31:31;;;;;;;29.92;19.48;;;;;;;5.38;61.70;102442.28;5031945;28;20039;-66
2022/03/02 00:33:56;;;;;;;29.58;20.42;;;;;;;5.36;61.45;102440.72;5030893;28;20033;-67
2022/03/02 00:36:22;;;;;;;28.98;19.38;;;;;;;5.34;60.94;102435.50;5032145;28;20083;-67
2022/03/02 00:38:47;;;;;;;29.20;19.30;;;;;;;5.40;62.26;102442.13;5031920;28;20061;-67
2022/03/02 00:41:12;;;;;;;30.85;19.83;;;;;;;5.42;61.43;102446.34;5032479;28;20057;-66
2022/03/02 00:43:37;;;;;;;30.02;19.77;;;;;;;5.44;61.97;102438.97;5023925;28;20112;-66
2022/03/02 00:46:03;;;;;;;29.25;19.50;;;;;;;5.48;61.23;102443.06;5012356;28;20092;-66
2022/03/02 00:48:28;;;;;;;37.15;19.60;;;;;;;5.45;61.16;102440.69;5012151;28;20029;-66
2022/03/02 00:50:54;;;;;;;29.05;18.85;;;;;;;5.48;61.01;102440.38;5012292;28;20389;-66
2022/03/02 00:53:19;;;;;;;32.20;19.75;;;;;;;5.49;60.81;102438.53;5012008;28;20379;-67
2022/03/02 00:55:44;;;;;;;30.98;19.65;;;;;;;5.46;60.65;102428.09;5012047;28;20029;-66
2022/03/02 00:58:10;;;;;;;27.90;18.50;;;;;;;5.43;60.50;102436.44;5012171;28;20026;-66
2022/03/02 01:00:35;;;;;;;29.20;19.48;;;;;;;5.43;61.04;102434.59;5009757;28;20048;-66
2022/03/02 01:03:01;;;;;;;32.28;19.48;;;;;;;5.42;60.81;102430.25;5012106;28;20033;-66
2022/03/02 01:05:26;;;;;;;28.77;19.45;;;;;;;5.46;60.85;102420.88;5012019;28;20041;-66
2022/03/02 01:07:51;;;;;;;30.58;19.80;;;;;;;5.49;61.41;102415.19;4994024;28;20409;-67
2022/03/02 01:10:17;;;;;;;31.25;18.98;;;;;;;5.52;61.07;102407.84;5012157;28;20026;-66
2022/03/02 01:12:43;;;;;;;31.85;19.63;;;;;;;5.53;61.12;102410.38;5013717;28;20034;-66
2022/03/02 01:15:09;;;;;;;29.05;18.48;;;;;;;5.50;60.43;102411.53;5033209;28;20040;-67
2022/03/02 01:17:35;;;;;;;29.75;19.30;;;;;;;5.53;60.66;102404.19;5035471;28;20037;-66
2022/03/02 01:20:00;;;;;;;29.40;19.17;;;;;;;5.53;61.40;102406.88;5035504;28;20036;-66
2022/03/02 01:22:26;;;;;;;29.08;18.42;;;;;;;5.42;59.58;102398.03;5035051;28;20039;-65
2022/03/02 01:24:51;;;;;;;28.52;19.23;;;;;;;5.47;60.24;102397.56;5035377;28;20029;-66
2022/03/02 01:27:16;;;;;;;30.17;19.25;;;;;;;5.44;60.95;102400.56;5034453;28;20029;-66
2022/03/02 01:29:42;;;;;;;26.63;18.23;;;;;;;5.44;60.76;102396.03;5014927;28;20033;-66
2022/03/02 01:32:09;;;;;;;35.05;18.85;;;;;;;5.41;60.37;102399.00;5015351;28;20032;-66
2022/03/02 01:34:35;;;;;;;27.25;19.38;;;;;;;5.41;60.57;102390.97;5015092;28;20057;-66
2022/03/02 01:37:01;;;;;;;31.33;19.73;;;;;;;5.39;59.90;102387.59;5014959;28;20064;-66
2022/03/02 01:39:26;;;;;;;28.88;19.13;;;;;;;5.30;60.70;102381.28;5017545;28;20149;-66
2022/03/02 01:41:52;;;;;;;26.92;18.60;;;;;;;5.23;60.38;102387.44;5033923;28;20385;-66
2022/03/02 01:44:18;;;;;;;34.50;18.73;;;;;;;5.22;60.43;102377.69;5034823;28;20449;-66
2022/03/02 01:46:43;;;;;;;27.63;19.52;;;;;;;5.24;61.39;102383.72;5034716;28;20029;-67
2022/03/02 01:49:09;;;;;;;32.00;20.52;;;;;;;5.21;60.65;102389.41;5034896;28;20116;-66
2022/03/02 01:51:34;;;;;;;31.42;19.38;;;;;;;5.21;60.74;102384.91;5034629;28;20437;-66
2022/03/02 01:54:00;;;;;;;28.95;19.42;;;;;;;5.20;60.97;102380.50;5034763;28;20486;-66
2022/03/02 01:56:25;;;;;;;29.13;19.90;;;;;;;5.19;61.30;102376.13;5016508;28;20040;-66
2022/03/02 01:58:51;;;;;;;37.75;19.80;;;;;;;5.17;60.91;102378.13;5014681;28;20038;-66
2022/03/02 02:01:17;;;;;;;30.92;19.83;;;;;;;5.19;60.73;102380.66;5012735;28;20113;-67
2022/03/02 02:03:42;;;;;;;29.20;19.30;;;;;;;5.21;61.25;102379.53;5013939;28;20152;-67
2022/03/02 02:06:08;;;;;;;30.13;19.08;;;;;;;5.18;60.39;102376.28;5014374;28;20103;-67
2022/03/02 02:08:34;;;;;;;29.95;19.25;;;;;;;5.20;60.82;102377.00;5031456;28;20040;-66
2022/03/02 02:11:00;;;;;;;28.63;19.40;;;;;;;5.12;60.18;102377.75;5034231;28;20033;-67
2022/03/02 02:13:27;;;;;;;30.27;18.88;;;;;;;5.08;59.97;102369.16;5034526;28;20033;-66
2022/03/02 02:15:54;;;;;;;29.50;19.45;;;;;;;5.04;60.39;102366.91;5033459;28;20037;-66
2022/03/02 02:18:19;;;;;;;31.23;19.80;;;;;;;5.05;60.61;102366.78;5034297;28;20053;-66
2022/03/02 02:20:45;;;;;;;32.50;19.67;;;;;;;5.03;59.96;102359.84;5033997;28;20095;-67
2022/03/02 02:23:11;;;;;;;35.08;19.35;;;;;;;5.04;60.46;102362.41;5020082;28;20034;-66
2022/03/02 02:25:37;;;;;;;31.67;19.00;;;;;;;5.04;61.00;102359.72;5014845;28;20034;-66
2022/03/02 02:28:02;;;;;;;28.40;18.98;;;;;;;5.08;60.16;102355.72;5014353;28;20026;-66
2022/03/02 02:30:29;;;;;;;28.40;18.85;;;;;;;5.05;59.86;102358.72;5014237;28;20105;-66
2022/03/02 02:32:54;;;;;;;33.25;19.83;;;;;;;5.09;60.29;102357.44;5014115;28;20112;-65
2022/03/02 02:35:19;;;;;;;31.95;19.90;;;;;;;5.06;60.88;102355.06;5014224;28;20107;-66
2022/03/02 02:37:45;;;;;;;29.85;18.88;;;;;;;5.06;61.13;102355.06;5013952;28;20042;-66
2022/03/02 02:40:17;;;;;;;30.17;18.95;;;;;;;5.05;60.88;102350.66;5022257;28;20484;-66
2022/03/02 02:42:45;;;;;;;31.45;19.65;;;;;;;5.04;60.02;102350.81;5013652;28;20034;-67
2022/03/02 02:45:15;;;;;;;29.83;18.25;;;;;;;5.01;60.36;102346.59;5013724;28;20557;-66
2022/03/02 02:47:41;;;;;;;30.10;19.90;;;;;;;4.99;60.36;102343.22;5016947;28;20107;-66
2022/03/02 02:50:22;;;;;;;29.27;18.63;;;;;;;5.04;60.71;102340.09;5033693;28;20060;-67
2022/03/02 02:52:48;;;;;;;31.23;17.90;;;;;;;5.01;60.37;102335.84;5033445;28;20030;-66
2022/03/02 02:55:15;;;;;;;27.70;19.00;;;;;;;4.97;60.12;102346.06;5033377;28;20493;-66
2022/03/02 02:57:41;;;;;;;32.42;18.55;;;;;;;4.89;59.55;102348.66;5033396;28;20083;-66
2022/03/02 03:00:12;;;;;;;28.88;18.52;;;;;;;4.85;60.26;102341.06;5031879;28;20124;-66
2022/03/02 03:02:38;;;;;;;30.38;19.00;;;;;;;4.85;60.09;102341.06;5025871;28;20470;-67
2022/03/02 03:05:03;;;;;;;28.10;18.67;;;;;;;4.87;60.19;102342.59;5013844;28;20033;-67
2022/03/02 03:07:29;;;;;;;30.05;19.27;;;;;;;4.86;59.82;102348.09;5014317;28;20453;-66
2022/03/02 03:09:54;;;;;;;30.73;18.52;;;;;;;4.93;59.88;102346.53;5013382;28;20033;-67
2022/03/02 03:12:19;;;;;;;29.88;18.38;;;;;;;4.91;60.95;102335.09;5017410;28;20026;-66
2022/03/02 03:14:44;;;;;;;28.25;18.30;;;;;;;4.84;59.61;102331.34;5033055;28;20029;-66
2022/03/02 03:17:10;;;;;;;29.23;18.20;;;;;;;4.86;60.68;102342.75;5032407;28;20030;-66
2022/03/02 03:19:35;;;;;;;28.60;18.60;;;;;;;4.86;59.78;102340.06;5032615;28;20435;-66
2022/03/02 03:22:05;;;;;;;31.08;17.98;;;;;;;4.84;60.01;102331.34;5031804;28;20036;-66
2022/03/02 03:24:31;;;;;;;24.65;16.98;;;;;;;4.85;59.79;102336.53;5032716;28;20527;-67
2022/03/02 03:26:56;;;;;;;28.10;18.30;;;;;;;4.87;59.25;102333.72;5032176;28;20029;-66
2022/03/02 03:29:21;;;;;;;29.27;17.15;;;;;;;4.88;59.42;102330.03;5013578;28;20080;-67
2022/03/02 03:31:46;;;;;;;27.98;17.58;;;;;;;4.83;59.36;102327.81;5012706;28;20030;-67
2022/03/02 03:34:12;;;;;;;25.70;16.13;;;;;;;4.80;58.88;102333.44;5012867;28;20496;-68
2022/03/02 03:36:38;;;;;;;25.65;17.55;;;;;;;4.84;59.76;102334.84;5012653;28;20112;-68
2022/03/02 03:39:04;;;;;;;26.88;16.95;;;;;;;4.84;59.50;102332.16;5012564;28;20026;-67
2022/03/02 03:41:29;;;;;;;27.10;16.35;;;;;;;4.81;59.29;102334.31;5013082;28;20029;-66
2022/03/02 03:43:54;;;;;;;25.38;16.55;;;;;;;4.83;58.26;102327.81;5030082;28;20033;-67
2022/03/02 03:46:20;;;;;;;28.20;16.77;;;;;;;4.81;58.91;102321.75;5021153;28;20547;-66
2022/03/02 03:48:45;;;;;;;25.98;16.58;;;;;;;4.83;58.40;102324.28;5032759;28;20026;-66
2022/03/02 03:51:10;;;;;;;25.00;16.48;;;;;;;4.86;59.00;102334.69;5032388;28;20064;-67
2022/03/02 03:53:35;;;;;;;23.88;16.50;;;;;;;4.87;58.51;102333.72;5032382;28;20033;-66
2022/03/02 03:56:01;;;;;;;24.67;15.57;;;;;;;4.82;57.87;102328.81;5032672;28;20083;-66
2022/03/02 03:58:26;;;;;;;24.42;16.17;;;;;;;4.74;58.02;102326.88;5032605;28;20116;-66
2022/03/02 04:00:51;;;;;;;25.35;16.50;;;;;;;4.68;57.58;102321.25;5027358;28;20041;-66
2022/03/02 04:03:17;;;;;;;29.27;17.23;;;;;;;4.72;58.96;102317.28;5011521;28;20057;-66
2022/03/02 04:05:42;;;;;;;28.08;16.65;;;;;;;4.67;58.77;102323.09;5012429;28;20480;-66
2022/03/02 04:08:08;;;;;;;26.85;16.55;;;;;;;4.66;58.39;102325.94;5012715;28;20425;-66
2022/03/02 04:10:34;;;;;;;24.08;15.23;;;;;;;4.63;58.28;102321.69;5012489;28;20101;-65
2022/03/02 04:12:59;;;;;;;25.00;16.27;;;;;;;4.61;57.77;102318.34;5011224;28;20036;-66
2022/03/02 04:15:25;;;;;;;23.60;15.95;;;;;;;4.67;58.93;102312.38;5013336;28;20109;-66
2022/03/02 04:17:50;;;;;;;27.45;16.92;;;;;;;4.64;57.66;102303.78;5031884;28;20033;-66
2022/03/02 04:20:16;;;;;;;27.83;16.20;;;;;;;4.70;58.23;102304.03;5032405;28;20029;-66
2022/03/02 04:22:41;;;;;;;26.45;15.85;;;;;;;4.72;58.86;102307.38;5032099;28;20104;-66
2022/03/02 04:25:07;;;;;;;24.42;15.80;;;;;;;4.69;58.65;102304.19;5032359;28;20437;-67
2022/03/02 04:27:33;;;;;;;23.83;15.20;;;;;;;4.71;58.15;102302.19;5031065;28;20491;-66
2022/03/02 04:29:58;;;;;;;27.08;16.17;;;;;;;4.68;58.60;102295.28;5032068;28;20025;-65
2022/03/02 04:32:24;;;;;;;26.85;16.58;;;;;;;4.66;57.81;102296.44;5015302;28;20130;-66
2022/03/02 04:34:49;;;;;;;24.35;15.27;;;;;;;4.64;57.96;102285.84;5012338;28;20061;-66
2022/03/02 04:37:14;;;;;;;23.33;15.80;;;;;;;4.64;58.04;102291.22;5012520;28;20076;-66
2022/03/02 04:39:40;;;;;;;26.38;15.77;;;;;;;4.62;57.93;102285.19;5012305;28;20033;-66
2022/03/02 04:42:05;;;;;;;29.05;16.15;;;;;;;4.59;57.16;102289.00;5012397;28;20363;-67
2022/03/02 04:44:31;;;;;;;28.45;16.30;;;;;;;4.55;57.74;102284.91;5012379;28;20029;-66
2022/03/02 04:46:56;;;;;;;25.30;15.57;;;;;;;4.55;57.73;102290.28;5027102;28;20064;-66
2022/03/02 04:49:21;;;;;;;23.08;15.73;;;;;;;4.52;57.51;102285.22;5032046;28;20034;-66
2022/03/02 04:51:48;;;;;;;25.10;15.82;;;;;;;4.53;57.94;102283.38;5035786;28;20029;-66
2022/03/02 04:56:59;;;;;;;24.90;14.75;;;;;;;4.52;57.94;102277.16;5035562;28;20045;-66
2022/03/02 04:59:24;;;;;;;25.02;16.00;;;;;;;4.50;58.03;102271.13;5035858;28;20025;-66
2022/03/02 05:01:50;;;;;;;23.80;15.02;;;;;;;4.43;58.53;102262.00;5016679;28;20044;-67
2022/03/02 05:04:15;;;;;;;22.02;14.68;;;;;;;4.48;57.84;102266.91;5015808;28;20079;-67
2022/03/02 05:06:40;;;;;;;24.15;15.50;;;;;;;4.49;58.16;102276.63;5015521;28;20042;-66
2022/03/02 05:09:05;;;;;;;21.38;14.93;;;;;;;4.40;57.19;102268.47;5017826;28;20049;-66
2022/03/02 05:11:31;;;;;;;23.15;14.48;;;;;;;4.35;57.45;102278.81;5033127;28;20026;-66
2022/03/02 05:13:56;;;;;;;23.00;14.85;;;;;;;4.32;57.35;102272.91;5015568;28;20421;-66
2022/03/02 05:16:22;;;;;;;24.65;15.07;;;;;;;4.33;57.66;102272.75;5015603;28;20026;-66
2022/03/02 05:18:48;;;;;;;25.60;15.65;;;;;;;4.26;57.50;102264.47;5015475;28;20022;-66
2022/03/02 05:21:15;;;;;;;25.58;14.95;;;;;;;4.33;57.81;102271.91;5015657;28;20084;-66
2022/03/02 05:23:40;;;;;;;25.95;15.10;;;;;;;4.30;58.05;102269.53;5015494;28;20068;-66
2022/03/02 05:26:05;;;;;;;24.38;15.18;;;;;;;4.30;57.91;102273.03;5015395;28;20061;-66
2022/03/02 05:28:31;;;;;;;24.63;14.80;;;;;;;4.30;57.75;102267.69;5035280;28;20034;-65
2022/03/02 05:30:56;;;;;;;27.05;15.40;;;;;;;4.26;57.65;102272.50;5034716;28;20037;-66
2022/03/02 05:33:21;;;;;;;21.63;14.65;;;;;;;4.28;57.44;102255.44;5033853;28;20075;-66
2022/03/02 05:35:46;;;;;;;23.58;14.77;;;;;;;4.25;57.67;102260.09;5033608;28;20064;-66
2022/03/02 05:38:12;;;;;;;24.73;14.68;;;;;;;4.30;57.98;102262.31;5033431;28;20087;-66
2022/03/02 05:40:37;;;;;;;25.23;14.43;;;;;;;4.25;57.75;102262.78;5035085;28;20374;-66
2022/03/02 05:43:02;;;;;;;23.27;14.55;;;;;;;4.29;57.40;102257.97;5018314;28;20084;-67
2022/03/02 05:45:28;;;;;;;22.77;14.27;;;;;;;4.32;57.56;102260.34;5015120;28;20361;-66
2022/03/02 05:47:53;;;;;;;25.48;15.02;;;;;;;4.33;58.20;102256.66;5014872;28;20449;-66
2022/03/02 05:50:19;;;;;;;21.35;14.75;;;;;;;4.36;57.99;102261.75;5014788;28;20032;-66
2022/03/02 05:52:44;;;;;;;23.27;14.48;;;;;;;4.35;58.42;102262.75;5014738;28;20056;-66
2022/03/02 05:55:09;;;;;;;20.48;13.43;;;;;;;4.32;57.05;102251.47;5014678;28;20030;-66
2022/03/02 05:57:34;;;;;;;22.42;14.15;;;;;;;4.31;57.41;102255.97;5027651;28;20530;-66
2022/03/02 06:00:00;;;;;;;20.88;13.40;;;;;;;4.27;55.53;102251.91;5034347;28;20428;-66
2022/03/02 06:02:25;;;;;;;24.33;14.00;;;;;;;4.27;56.85;102254.59;5031959;28;20029;-66
2022/03/02 06:04:51;;;;;;;22.10;13.68;;;;;;;4.28;57.17;102258.97;5034496;28;20033;-66
2022/03/02 06:07:16;;;;;;;21.42;13.95;;;;;;;4.28;56.76;102263.50;5034654;28;20056;-65
2022/03/02 06:09:42;;;;;;;22.27;13.18;;;;;;;4.26;55.22;102266.31;5034593;28;20091;-66
2022/03/02 06:12:09;;;;;;;22.83;13.02;;;;;;;4.25;56.37;102269.97;5030956;28;20034;-66
2022/03/02 06:14:35;;;;;;;24.30;13.82;;;;;;;4.22;56.58;102264.91;5034426;28;20112;-66
2022/03/02 06:17:00;;;;;;;25.35;13.50;;;;;;;4.18;55.94;102258.16;5034018;28;20527;-67
2022/03/02 06:19:26;;;;;;;22.30;13.10;;;;;;;4.22;57.04;102262.25;5034341;28;20152;-67
2022/03/02 06:21:52;;;;;;;21.67;13.75;;;;;;;4.23;57.37;102263.94;5034300;28;20033;-66
2022/03/02 06:24:18;;;;;;;23.73;13.43;;;;;;;4.24;56.91;102261.09;5034136;28;20025;-66
2022/03/02 06:26:44;;;;;;;23.13;13.55;;;;;;;4.23;56.93;102271.97;5022351;28;20045;-66
2022/03/02 06:29:09;;;;;;;22.30;13.50;;;;;;;4.17;55.65;102269.88;5014194;28;20036;-66
2022/03/02 06:31:35;;;;;;;21.90;13.68;;;;;;;4.21;56.61;102268.56;5014331;28;20041;-66
2022/03/02 06:34:00;;;;;;;21.85;13.32;;;;;;;4.19;56.43;102265.22;5014094;28;20061;-66
2022/03/02 06:36:26;;;;;;;21.20;13.27;;;;;;;4.18;56.51;102268.88;5014232;28;20469;-67
2022/03/02 06:38:51;;;;;;;25.98;13.52;;;;;;;4.20;56.37;102270.44;5013915;28;20034;-66
2022/03/02 06:41:35;;;;;;;20.00;12.65;;;;;;;4.18;56.80;102271.56;5023561;28;20491;-66
2022/03/02 06:44:04;;;;;;;18.77;13.18;;;;;;;4.14;56.33;102275.53;5033336;28;20026;-66
2022/03/02 06:46:39;;;;;;;23.58;13.15;;;;;;;4.19;56.68;102275.94;5033836;28;20039;-66
2022/03/02 06:49:30;;;;;;;20.20;12.95;;;;;;;4.16;56.28;102278.91;5033498;28;20037;-66
2022/03/02 06:51:58;;;;;;;25.05;14.20;;;;;;;4.16;55.94;102284.25;5033859;28;20030;-65
2022/03/02 06:54:31;;;;;;;22.77;14.10;;;;;;;4.09;56.17;102278.63;5020446;28;20042;-66
2022/03/02 06:56:58;;;;;;;21.52;13.52;;;;;;;4.03;55.80;102285.44;5013624;28;20034;-66
2022/03/02 06:59:37;;;;;;;22.45;13.13;;;;;;;4.03;56.63;102280.09;5013886;28;20034;-70
2022/03/02 07:02:04;;;;;;;23.20;14.13;;;;;;;4.08;57.35;102285.84;5010915;28;20148;-69
2022/03/02 07:04:42;;;;;;;25.27;13.75;;;;;;;4.11;56.72;102289.19;5013358;28;20040;-69
2022/03/02 07:07:09;;;;;;;24.48;13.18;;;;;;;4.08;56.45;102276.97;5013216;28;20892;-70
2022/03/02 07:09:35;;;;;;;20.27;12.80;;;;;;;4.12;57.21;102293.56;5030178;28;20116;-76
2022/03/02 07:12:02;;;;;;;21.70;13.43;;;;;;;4.10;56.27;102291.03;5032594;28;20131;-71
2022/03/02 07:14:29;;;;;;;21.83;13.02;;;;;;;4.13;56.74;102282.72;5031844;28;20439;-71
2022/03/02 07:17:00;;;;;;;24.80;13.07;;;;;;;4.12;56.42;102278.34;5033016;28;20029;-71
2022/03/02 07:19:26;;;;;;;23.25;13.20;;;;;;;4.11;56.55;102284.72;5033173;28;20034;-70
2022/03/02 07:21:52;;;;;;;22.10;12.95;;;;;;;4.11;55.08;102289.19;5032813;28;20030;-71
2022/03/02 07:24:22;;;;;;;23.13;13.77;;;;;;;4.10;56.26;102290.22;5016690;28;20041;-70
2022/03/02 07:26:54;;;;;;;19.73;13.15;;;;;;;4.08;56.08;102291.19;5013342;28;20041;-70
2022/03/02 07:29:21;;;;;;;22.25;12.50;;;;;;;4.11;56.02;102292.75;5012028;28;20044;-71
2022/03/02 07:31:48;;;;;;;21.67;13.60;;;;;;;4.13;56.68;102297.97;5011983;28;20091;-81
2022/03/02 07:34:15;;;;;;;21.95;12.80;;;;;;;4.11;55.97;102295.44;5011592;28;20429;-72
2022/03/02 07:36:42;;;;;;;21.23;13.32;;;;;;;4.14;55.56;102299.66;5013079;28;20036;-72
2022/03/02 07:39:09;;;;;;;19.17;13.02;;;;;;;4.09;55.83;102297.38;5028917;28;20559;-72
2022/03/02 07:41:35;;;;;;;20.88;13.50;;;;;;;4.14;56.19;102294.28;5032753;28;20064;-73
2022/03/02 07:44:00;;;;;;;24.17;14.30;;;;;;;4.15;56.06;102295.97;5031188;28;20040;-72
2022/03/02 07:46:28;;;;;;;20.02;13.50;;;;;;;4.10;54.68;102287.53;5031827;28;20112;-72
2022/03/02 07:48:54;;;;;;;22.70;13.77;;;;;;;4.13;55.89;102288.06;5032606;28;20155;-72
2022/03/02 07:51:20;;;;;;;26.92;18.73;;;;;;;4.15;56.14;102280.75;5031478;28;20076;-73
2022/03/02 07:53:48;;;;;;;23.60;16.35;;;;;;;4.19;56.69;102283.97;5015110;28;20393;-72
2022/03/02 07:56:15;;;;;;;40.35;21.58;;;;;;;4.21;54.63;102281.97;5012564;28;20030;-72
2022/03/02 07:58:41;;;;;;;44.28;26.10;;;;;;;4.20;54.89;102274.94;5012842;28;20022;-72
2022/03/02 08:01:12;;;;;;;34.20;21.02;;;;;;;4.28;56.00;102266.16;5010215;28;20038;-73
2022/03/02 08:03:40;;;;;;;34.63;20.50;;;;;;;4.32;55.69;102270.22;5012416;28;20034;-72
2022/03/02 08:06:07;;;;;;;27.30;16.80;;;;;;;4.36;54.89;102280.53;5012477;28;20033;-73
2022/03/02 08:08:34;;;;;;;25.45;15.65;;;;;;;4.41;55.02;102270.19;5028854;28;20144;-73
2022/03/02 08:11:01;;;;;;;23.45;14.10;;;;;;;4.46;53.73;102266.22;5032237;28;20025;-73
2022/03/02 08:13:29;;;;;;;21.85;14.30;;;;;;;4.48;53.90;102258.84;5032200;28;20029;-73
2022/03/02 08:15:55;;;;;;;26.83;14.85;;;;;;;4.53;53.58;102261.91;5023966;28;20061;-72
2022/03/02 08:18:20;;;;;;;25.30;14.80;;;;;;;4.63;53.17;102267.25;5011383;28;20072;-72
2022/03/02 08:20:50;;;;;;;20.63;13.60;;;;;;;4.66;53.90;102265.09;5012919;28;20265;-72
2022/03/02 08:23:19;;;;;;;22.67;13.85;;;;;;;4.77;54.17;102267.56;5025498;28;20088;-70
2022/03/02 08:25:46;;;;;;;23.02;13.73;;;;;;;4.84;53.26;102265.09;5016526;28;20087;-71
2022/03/02 08:28:14;;;;;;;24.40;12.65;;;;;;;4.87;53.02;102263.97;5015872;28;20532;-70
2022/03/02 08:30:40;;;;;;;23.60;12.52;;;;;;;4.96;53.55;102263.06;5031262;28;20029;-73
2022/03/02 08:33:08;;;;;;;24.10;14.02;;;;;;;4.94;51.83;102270.41;5015779;28;20044;-73
2022/03/02 08:35:38;;;;;;;20.65;13.93;;;;;;;4.98;51.89;102269.09;5016302;28;20065;-73
2022/03/02 08:38:04;;;;;;;22.27;14.77;;;;;;;5.03;53.06;102258.75;5015941;28;20029;-73
2022/03/02 08:40:29;;;;;;;24.23;13.80;;;;;;;5.11;52.88;102260.69;5016012;28;20120;-71
2022/03/02 08:42:57;;;;;;;24.13;12.88;;;;;;;5.17;52.24;102257.38;5015457;28;20042;-72
2022/03/02 08:45:24;;;;;;;18.88;12.70;;;;;;;5.21;52.30;102252.53;5015853;28;20165;-72
2022/03/02 08:47:49;;;;;;;20.30;12.70;;;;;;;5.29;51.81;102255.28;5014575;28;20061;-73
2022/03/02 08:50:15;;;;;;;19.83;12.00;;;;;;;5.35;52.39;102251.97;5014281;28;20112;-73
2022/03/02 08:52:40;;;;;;;20.10;12.48;;;;;;;5.42;51.74;102260.25;5028170;28;20029;-73
2022/03/02 08:55:11;;;;;;;18.70;12.63;;;;;;;5.46;52.18;102257.09;5035347;28;20035;-73
2022/03/02 08:57:43;;;;;;;19.88;12.02;;;;;;;5.54;51.70;102256.34;5035482;28;20029;-73
2022/03/02 09:00:10;;;;;;;19.17;12.15;;;;;;;5.58;51.46;102256.84;5033883;28;20465;-73
2022/03/02 09:02:37;;;;;;;22.98;13.07;;;;;;;5.66;49.38;102248.84;5033128;28;20040;-73
2022/03/02 09:05:05;;;;;;;19.17;12.88;;;;;;;5.66;50.03;102244.31;5035549;28;20025;-73
2022/03/02 09:07:30;;;;;;;23.10;12.13;;;;;;;5.75;50.90;102255.09;5022059;28;20037;-71
2022/03/02 09:09:58;;;;;;;20.88;12.68;;;;;;;5.75;50.79;102241.69;5015596;28;20381;-72
2022/03/02 09:12:23;;;;;;;20.08;12.32;;;;;;;5.81;50.27;102241.91;5016030;28;20032;-78
2022/03/02 09:14:49;;;;;;;20.45;12.18;;;;;;;5.92;49.68;102247.97;5014445;28;20056;-73
2022/03/02 09:17:25;;;;;;;18.30;12.50;;;;;;;6.01;49.87;102247.91;5014181;28;20457;-74
2022/03/02 09:19:51;;;;;;;19.52;12.25;;;;;;;6.03;49.88;102250.44;5015954;28;20030;-84
2022/03/02 09:22:17;;;;;;;21.65;11.93;;;;;;;6.09;49.31;102244.41;5028409;28;20044;-71
2022/03/02 09:24:44;;;;;;;19.42;12.40;;;;;;;6.20;50.01;102244.16;5035026;28;20029;-71
2022/03/02 09:27:11;;;;;;;18.90;12.00;;;;;;;6.25;49.72;102243.66;5020654;28;20040;-71
2022/03/02 09:29:39;;;;;;;19.85;11.63;;;;;;;6.34;49.01;102241.81;5051593;28;20025;-70
2022/03/02 09:32:05;;;;;;;16.92;11.65;;;;;;;6.43;48.59;102245.38;5020148;28;20026;-72
2022/03/02 09:34:33;;;;;;;18.33;11.85;;;;;;;6.44;48.83;102237.16;5015349;28;20029;-72
2022/03/02 09:36:59;;;;;;;18.08;12.02;;;;;;;6.51;49.36;102232.81;5014346;28;20030;-71
2022/03/02 09:39:25;;;;;;;17.77;11.43;;;;;;;6.61;47.06;102229.13;5015399;28;20026;-74
2022/03/02 09:42:01;;;;;;;19.27;11.80;;;;;;;6.69;46.84;102229.16;5015792;28;20030;-73
2022/03/02 09:45:01;;;;;;;18.95;11.32;;;;;;;6.74;47.26;102227.63;5051713;28;20033;-74
2022/03/02 09:47:41;;;;;;;20.83;12.13;;;;;;;6.79;46.12;102229.81;5018040;28;20097;-74
2022/03/02 09:50:09;;;;;;;15.60;11.23;;;;;;;6.83;46.40;102233.88;5014389;28;20041;-74
2022/03/02 09:52:40;;;;;;;19.23;11.77;;;;;;;6.87;45.47;102224.47;5024436;28;20044;-81
2022/03/02 09:55:09;;;;;;;17.53;11.40;;;;;;;6.87;45.12;102216.41;5032246;28;20140;-73
2022/03/02 09:57:41;;;;;;;19.92;11.77;;;;;;;6.99;45.89;102211.53;5026597;28;20025;-74
2022/03/02 10:00:08;;;;;;;17.42;11.13;;;;;;;7.11;46.01;102206.66;5043599;28;20435;-74
2022/03/02 10:02:48;;;;;;;17.13;11.05;;;;;;;7.22;46.38;102218.94;5010993;28;20026;-72
2022/03/02 10:05:21;;;;;;;18.75;11.95;;;;;;;7.28;44.51;102212.88;5014873;28;20087;-72
2022/03/02 10:08:03;;;;;;;22.58;13.90;;;;;;;7.38;46.01;102215.38;5013384;28;20056;-73
2022/03/02 10:10:36;;;;;;;20.80;13.07;;;;;;;7.44;45.91;102212.84;5014681;28;20029;-73
2022/03/02 10:13:05;;;;;;;16.17;11.18;;;;;;;7.53;44.79;102210.13;5014844;28;20075;-81
2022/03/02 10:15:33;;;;;;;21.17;11.15;;;;;;;7.60;45.11;102216.53;5014242;28;20029;-82
2022/03/02 10:18:01;;;;;;;17.33;10.40;;;;;;;7.69;44.12;102214.66;5039848;28;20124;-81
2022/03/02 10:20:31;;;;;;;21.17;10.70;;;;;;;7.78;44.59;102213.63;5015961;28;20064;-83
2022/03/02 10:23:22;;;;;;;15.27;10.43;;;;;;;7.84;43.56;102217.50;5013370;28;20021;-86
2022/03/02 10:26:10;;;;;;;18.35;10.95;;;;;;;7.91;44.55;102210.38;5014297;28;20513;-73
2022/03/02 10:28:56;;;;;;;17.73;10.23;;;;;;;7.93;43.97;102205.66;5014511;28;20022;-70
2022/03/02 10:31:33;;;;;;;16.27;10.57;;;;;;;7.95;43.94;102206.31;5014239;28;20076;-70
2022/03/02 10:34:23;;;;;;;15.38;10.20;;;;;;;8.05;43.61;102203.44;5014625;28;20036;-71
2022/03/02 10:37:03;;;;;;;15.88;10.45;;;;;;;8.08;42.33;102206.59;5014163;28;20044;-71
2022/03/02 10:39:51;;;;;;;17.45;10.27;;;;;;;8.16;43.03;102200.31;5013933;28;20122;-69
2022/03/02 10:42:22;;;;;;;17.40;9.93;;;;;;;8.22;43.07;102198.78;5025706;28;20040;-73
2022/03/02 10:45:13;;;;;;;18.17;10.15;;;;;;;8.35;43.99;102201.75;5050128;28;20388;-72
2022/03/02 10:47:58;;;;;;;16.88;10.25;;;;;;;8.46;43.49;102201.38;5045716;28;20033;-72
2022/03/02 10:50:26;;;;;;;16.27;9.75;;;;;;;8.54;42.07;102200.50;5033873;28;20107;-71
2022/03/02 10:52:54;;;;;;;16.75;9.90;;;;;;;8.58;41.07;102204.50;5017440;28;20030;-71
2022/03/02 10:55:21;;;;;;;16.30;10.10;;;;;;;8.66;42.63;102204.44;5013570;28;20030;-73
2022/03/02 10:57:49;;;;;;;16.75;10.07;;;;;;;8.64;40.90;102201.09;5013817;28;20046;-73
2022/03/02 11:00:18;;;;;;;16.08;10.57;;;;;;;8.72;40.07;102196.66;5013222;28;20034;-79
2022/03/02 11:02:46;;;;;;;14.43;9.80;;;;;;;8.79;41.86;102205.75;5011943;28;20127;-72
2022/03/02 11:05:14;;;;;;;14.65;9.88;;;;;;;8.80;41.34;102186.66;5013150;28;20431;-74
2022/03/02 11:07:41;;;;;;;16.55;10.27;;;;;;;8.92;43.48;102178.94;5013731;28;20033;-73
2022/03/02 11:10:09;;;;;;;16.55;10.60;;;;;;;9.01;43.89;102183.28;5013435;28;20033;-73
2022/03/02 11:12:37;;;;;;;16.85;10.27;;;;;;;9.09;40.80;102184.22;5014253;28;20026;-75
2022/03/02 11:15:05;;;;;;;17.25;10.65;;;;;;;9.08;42.05;102182.56;5033021;28;20055;-72
2022/03/02 11:17:31;;;;;;;15.50;10.13;;;;;;;9.09;39.80;102178.81;5022209;28;20030;-72
2022/03/02 11:19:57;;;;;;;15.60;10.20;;;;;;;9.06;42.64;102174.63;5043148;28;20387;-73
2022/03/02 11:22:26;;;;;;;17.65;11.13;;;;;;;9.10;41.53;102169.69;5049368;28;20083;-72